Time;durP1;ratioP1;P1;durP2;ratioP2;P2;SDS_P1;SDS_P2;PMS_P1;PMS_P2;Temp;Humidity;BMP_temperature;BMP_pressure;BME280_temperature;BME280_humidity;BME280_pressure;Samples;Min_cycle;Max_cycle;Signal;HPM_P1;HPM_P2
2024/04/05 00:01:47;;;;;;;2.00;1.00;;;;;;;11.26;83.42;99319.11;217329;1259;140715;-69
2024/04/05 00:06:50;;;;;;;0.70;0.70;;;;;;;11.19;83.80;99308.09;217442;1259;139847;-69
2024/04/05 00:11:52;;;;;;;1.60;1.30;;;;;;;11.13;83.74;99297.94;217266;1258;140430;-70
2024/04/05 00:16:55;;;;;;;1.50;1.40;;;;;;;11.08;83.88;99300.11;218337;1257;141874;-72
2024/04/05 00:21:59;;;;;;;1.70;1.60;;;;;;;11.05;84.50;99310.58;217472;1260;140875;-69
2024/04/05 00:27:02;;;;;;;4.40;0.80;;;;;;;11.04;84.36;99316.54;219140;1257;140723;-69
2024/04/05 00:32:06;;;;;;;1.10;0.80;;;;;;;11.00;84.54;99324.70;218269;1259;141281;-71
2024/04/05 00:37:09;;;;;;;3.10;1.10;;;;;;;11.00;84.83;99332.56;217310;1261;140326;-68
2024/04/05 00:42:12;;;;;;;2.80;1.10;;;;;;;11.02;85.00;99343.02;217892;1261;142156;-70
2024/04/05 00:47:15;;;;;;;3.00;2.80;;;;;;;11.01;85.17;99348.35;217553;1261;140869;-69
2024/04/05 00:52:18;;;;;;;2.10;1.00;;;;;;;11.01;85.41;99359.29;217947;1259;140388;-70
2024/04/05 00:57:20;;;;;;;1.80;1.40;;;;;;;10.97;85.30;99362.77;217320;1259;140065;-69
2024/04/05 01:02:24;;;;;;;1.40;1.20;;;;;;;10.89;85.35;99368.14;217434;1259;139693;-70
2024/04/05 01:07:27;;;;;;;0.90;0.90;;;;;;;10.79;85.41;99373.48;217316;1260;143673;-68
2024/04/05 01:12:30;;;;;;;1.40;1.10;;;;;;;10.74;85.78;99377.61;217537;1262;141093;-68
2024/04/05 01:17:35;;;;;;;3.10;1.10;;;;;;;10.71;86.14;99384.13;217565;1261;141227;-71
2024/04/05 01:22:50;;;;;;;2.40;1.30;;;;;;;10.72;86.39;99390.38;218222;1257;140699;-69
2024/04/05 01:27:54;;;;;;;4.20;1.90;;;;;;;10.72;86.09;99391.77;216949;1260;140099;-70
2024/04/05 01:33:01;;;;;;;3.60;3.30;;;;;;;10.66;85.62;99393.19;217234;1262;139933;-69
2024/04/05 01:38:04;;;;;;;5.40;2.70;;;;;;;10.56;85.41;99389.02;217379;1262;140138;-70
2024/04/05 01:43:07;;;;;;;2.80;2.60;;;;;;;10.45;85.40;99386.17;217085;1260;141169;-69
2024/04/05 01:48:10;;;;;;;6.50;2.70;;;;;;;10.36;85.27;99388.08;217233;1259;140595;-69
2024/04/05 01:53:13;;;;;;;2.10;2.00;;;;;;;10.24;84.96;99390.69;217417;1260;139998;-70
2024/04/05 01:58:17;;;;;;;3.20;2.90;;;;;;;10.11;85.10;99395.50;217087;1258;139710;-70
2024/04/05 02:03:21;;;;;;;2.20;1.50;;;;;;;9.99;84.96;99397.54;217307;1262;141252;-69
2024/04/05 02:08:25;;;;;;;1.50;1.40;;;;;;;9.86;85.12;99402.81;217702;1257;139714;-70
2024/04/05 02:13:27;;;;;;;2.90;1.40;;;;;;;9.81;85.45;99407.02;217302;1262;141075;-68
2024/04/05 02:18:30;;;;;;;7.60;2.20;;;;;;;9.80;85.62;99404.83;219502;1258;139826;-69
2024/04/05 02:23:34;;;;;;;1.90;1.20;;;;;;;9.80;85.71;99411.21;218368;1258;141920;-69
2024/04/05 02:28:38;;;;;;;4.90;2.00;;;;;;;9.79;85.47;99414.98;219414;1259;141504;-69
2024/04/05 02:33:41;;;;;;;2.80;1.10;;;;;;;9.79;85.28;99426.76;217503;1257;139979;-69
2024/04/05 02:38:45;;;;;;;7.30;2.10;;;;;;;9.76;85.16;99429.10;217255;1259;140300;-70
2024/04/05 02:43:48;;;;;;;1.30;1.20;;;;;;;9.73;85.17;99435.66;218691;1259;140058;-70
2024/04/05 02:48:51;;;;;;;1.60;1.50;;;;;;;9.70;84.92;99435.96;217317;1257;141681;-69
2024/04/05 02:53:54;;;;;;;1.20;1.10;;;;;;;9.67;84.78;99432.05;218203;1257;140663;-69
2024/04/05 02:58:57;;;;;;;1.90;1.30;;;;;;;9.60;84.64;99435.27;217828;1261;140324;-70
2024/04/05 03:04:04;;;;;;;2.70;1.40;;;;;;;9.50;84.54;99441.73;217720;1257;139702;-70
2024/04/05 03:09:07;;;;;;;2.80;2.40;;;;;;;9.45;84.64;99451.99;217561;1261;139951;-69
2024/04/05 03:14:09;;;;;;;2.20;1.60;;;;;;;9.40;84.75;99459.94;217212;1262;140974;-70
2024/04/05 03:19:11;;;;;;;3.20;1.30;;;;;;;9.36;84.78;99462.35;217570;1259;140207;-69
2024/04/05 03:24:14;;;;;;;1.90;1.20;;;;;;;9.34;84.93;99469.09;217346;1260;140417;-68
2024/04/05 03:29:17;;;;;;;1.80;1.30;;;;;;;9.30;84.72;99474.90;217906;1257;139744;-70
2024/04/05 03:34:19;;;;;;;2.50;1.00;;;;;;;9.28;84.74;99471.82;217278;1259;140665;-70
2024/04/05 03:39:21;;;;;;;1.30;1.00;;;;;;;9.24;84.62;99481.10;217369;1257;139918;-69
2024/04/05 03:44:24;;;;;;;1.00;1.00;;;;;;;9.20;84.65;99487.92;217351;1259;140675;-69
2024/04/05 03:49:29;;;;;;;1.00;0.70;;;;;;;9.15;84.62;99496.77;216895;1259;139609;-69
2024/04/05 03:54:32;;;;;;;1.00;1.00;;;;;;;9.12;84.46;99503.13;217312;1257;140739;-68
2024/04/05 03:59:34;;;;;;;1.50;1.40;;;;;;;9.06;84.42;99509.80;217952;1259;140644;-68
2024/04/05 04:04:37;;;;;;;2.20;0.90;;;;;;;9.02;84.28;99512.73;218474;1259;141053;-68
2024/04/05 04:09:43;;;;;;;3.10;0.90;;;;;;;8.96;84.32;99517.41;217278;1260;140741;-69
2024/04/05 04:14:46;;;;;;;1.40;1.00;;;;;;;8.95;84.50;99524.83;218158;1257;140307;-70
2024/04/05 04:19:49;;;;;;;1.60;1.50;;;;;;;8.91;84.50;99528.98;218035;1259;140072;-69
2024/04/05 04:24:51;;;;;;;1.70;1.10;;;;;;;8.86;84.41;99530.95;217297;1259;139377;-69
2024/04/05 04:29:58;;;;;;;2.80;1.60;;;;;;;8.84;84.41;99538.52;217178;1261;140485;-69
2024/04/05 04:35:03;;;;;;;2.20;1.80;;;;;;;8.84;84.50;99538.31;218629;1258;139893;-67
2024/04/05 04:40:05;;;;;;;2.20;1.90;;;;;;;8.86;84.61;99541.42;217410;1260;152814;-69
2024/04/05 04:45:08;;;;;;;2.90;1.70;;;;;;;8.89;84.42;99544.26;217390;1262;140694;-68
2024/04/05 04:50:11;;;;;;;1.30;1.20;;;;;;;8.94;84.81;99554.90;217809;1258;221571;-70
2024/04/05 04:55:14;;;;;;;2.40;2.30;;;;;;;9.03;84.84;99565.48;218347;1259;140287;-70
2024/04/05 05:00:17;;;;;;;1.40;0.90;;;;;;;9.12;84.80;99571.52;217004;1259;331764;-71
2024/04/05 05:05:20;;;;;;;1.00;1.00;;;;;;;9.23;84.66;99582.26;217882;1261;139841;-70
2024/04/05 05:10:23;;;;;;;1.00;1.00;;;;;;;9.37;84.63;99590.79;217431;1258;140374;-70
2024/04/05 05:15:27;;;;;;;2.00;1.00;;;;;;;9.49;84.58;99599.31;217178;1257;139600;-70
2024/04/05 05:20:29;;;;;;;1.10;0.80;;;;;;;9.68;84.55;99608.76;217504;1259;141366;-71
2024/04/05 05:25:32;;;;;;;1.10;0.70;;;;;;;9.79;84.42;99615.02;217454;1258;139613;-71
2024/04/05 05:30:36;;;;;;;1.40;1.00;;;;;;;9.94;84.33;99618.48;217731;1259;140999;-71
2024/04/05 05:35:39;;;;;;;2.40;1.10;;;;;;;10.12;84.27;99628.02;217636;1257;140686;-70
2024/04/05 05:40:42;;;;;;;1.20;1.10;;;;;;;10.20;83.80;99635.10;217204;1259;141292;-70
2024/04/05 05:45:45;;;;;;;1.10;1.00;;;;;;;10.35;83.90;99635.36;217311;1257;141218;-70
2024/04/05 05:50:47;;;;;;;1.60;1.50;;;;;;;10.71;83.99;99640.59;217272;1259;140140;-71
2024/04/05 05:55:52;;;;;;;1.50;0.90;;;;;;;11.12;83.62;99641.52;217667;1262;140612;-68
2024/04/05 06:00:54;;;;;;;5.30;1.70;;;;;;;11.29;83.01;99649.02;217755;1258;141563;-69
2024/04/05 06:05:56;;;;;;;20.70;1.70;;;;;;;11.52;82.96;99651.73;219180;1257;140628;-70
2024/04/05 06:10:58;;;;;;;3.70;1.80;;;;;;;11.92;82.85;99652.27;217538;1262;140011;-70
2024/04/05 06:16:01;;;;;;;2.00;1.50;;;;;;;12.16;82.01;99656.98;217244;1262;140581;-70
2024/04/05 06:21:04;;;;;;;1.00;0.90;;;;;;;12.25;81.17;99665.65;217366;1259;139986;-70
2024/04/05 06:26:08;;;;;;;2.00;1.30;;;;;;;12.44;81.29;99670.61;217549;1259;140172;-71
2024/04/05 06:31:11;;;;;;;2.40;1.40;;;;;;;12.56;80.83;99673.41;217858;1259;140757;-70
2024/04/05 06:36:15;;;;;;;2.80;1.70;;;;;;;12.81;80.37;99679.80;217501;1261;139852;-70
2024/04/05 06:41:18;;;;;;;2.30;0.90;;;;;;;13.10;79.93;99689.49;218804;1261;140718;-72
2024/04/05 06:46:21;;;;;;;4.70;1.60;;;;;;;13.31;79.54;99693.59;217866;1259;140658;-71
2024/04/05 06:51:23;;;;;;;2.50;1.00;;;;;;;13.52;79.09;99698.59;217332;1258;139970;-72
2024/04/05 06:56:27;;;;;;;1.40;1.20;;;;;;;13.61;78.49;99703.60;217343;1261;141502;-71
2024/04/05 07:01:30;;;;;;;1.40;1.20;;;;;;;13.52;77.99;99716.74;217545;1257;140388;-71
2024/04/05 07:06:32;;;;;;;2.30;1.60;;;;;;;13.33;77.85;99724.23;217606;1261;140664;-71
2024/04/05 07:11:37;;;;;;;4.60;1.30;;;;;;;13.18;77.83;99730.59;218035;1259;140840;-72
2024/04/05 07:16:40;;;;;;;4.60;1.50;;;;;;;12.97;77.46;99737.52;217415;1262;140745;-70
2024/04/05 07:21:45;;;;;;;1.10;1.10;;;;;;;12.76;77.35;99744.02;218111;1259;141336;-71
2024/04/05 07:26:49;;;;;;;1.20;1.00;;;;;;;12.67;77.61;99745.01;217406;1259;140598;-70
2024/04/05 07:31:53;;;;;;;1.90;1.20;;;;;;;12.66;77.70;99756.12;218333;1258;140263;-70
2024/04/05 07:36:56;;;;;;;1.30;1.20;;;;;;;12.75;77.86;99757.54;218195;1262;139496;-70
2024/04/05 07:42:05;;;;;;;3.10;1.60;;;;;;;13.12;78.08;99763.70;217869;1258;140619;-70
2024/04/05 07:47:07;;;;;;;3.30;1.50;;;;;;;13.54;77.81;99768.61;218205;1258;141144;-71
2024/04/05 07:52:11;;;;;;;2.50;1.10;;;;;;;13.77;77.26;99774.34;220120;1257;140349;-70
2024/04/05 07:57:19;;;;;;;2.00;1.30;;;;;;;13.83;76.53;99775.63;219916;1257;140388;-70
2024/04/05 08:02:27;;;;;;;11.40;3.60;;;;;;;13.92;76.64;99775.23;219480;1257;139650;-71
2024/04/05 08:07:30;;;;;;;6.30;2.10;;;;;;;14.10;76.12;99771.02;218377;1258;141384;-70
2024/04/05 08:12:33;;;;;;;2.40;1.80;;;;;;;14.39;75.71;99769.30;217291;1262;141290;-72
2024/04/05 08:17:37;;;;;;;3.60;1.60;;;;;;;14.76;75.50;99761.95;218002;1257;140235;-70
2024/04/05 08:22:41;;;;;;;4.40;2.20;;;;;;;15.30;75.82;99759.59;218040;1259;140249;-70
2024/04/05 08:27:45;;;;;;;3.90;1.90;;;;;;;15.92;75.50;99762.48;217835;1260;140493;-69
2024/04/05 08:32:47;;;;;;;6.00;1.70;;;;;;;16.55;75.04;99771.29;217641;1257;140326;-70
2024/04/05 08:37:50;;;;;;;5.80;2.20;;;;;;;16.82;73.75;99781.78;217422;1260;141711;-71
2024/04/05 08:42:55;;;;;;;8.10;2.30;;;;;;;16.80;72.66;99793.20;217357;1261;140390;-71
2024/04/05 08:48:03;;;;;;;4.60;2.30;;;;;;;16.62;71.28;99784.13;217303;1258;140653;-72
2024/04/05 08:53:08;;;;;;;3.60;1.70;;;;;;;16.81;71.61;99778.49;217979;1257;140904;-72
2024/04/05 08:58:13;;;;;;;3.00;1.80;;;;;;;17.22;71.44;99775.10;217499;1259;139744;-70
2024/04/05 09:03:17;;;;;;;4.30;1.80;;;;;;;17.29;70.28;99784.13;217420;1261;140607;-71
2024/04/05 09:08:20;;;;;;;5.70;2.10;;;;;;;17.36;69.63;99787.54;217988;1260;140895;-71
2024/04/05 09:13:23;;;;;;;6.10;2.30;;;;;;;17.49;69.31;99787.50;217508;1260;140300;-71
2024/04/05 09:18:26;;;;;;;4.40;1.70;;;;;;;17.52;68.45;99795.08;218068;1260;141250;-71
2024/04/05 09:23:28;;;;;;;3.70;1.70;;;;;;;17.37;67.60;99793.77;217497;1260;235886;-71
2024/04/05 09:28:31;;;;;;;3.20;1.40;;;;;;;17.24;67.64;99796.41;217540;1259;140469;-71
2024/04/05 09:33:34;;;;;;;3.10;2.00;;;;;;;17.25;67.84;99793.56;218022;1260;140799;-70
2024/04/05 09:38:39;;;;;;;7.60;1.90;;;;;;;17.57;68.01;99794.73;218551;1258;141156;-72
2024/04/05 09:43:42;;;;;;;4.50;2.60;;;;;;;18.07;67.55;99806.05;217368;1262;139606;-72
2024/04/05 09:49:05;;;;;;;3.60;2.10;;;;;;;18.24;66.42;99809.58;218490;1261;141451;-71
2024/04/05 09:54:12;;;;;;;2.50;2.30;;;;;;;18.17;65.22;99812.39;218375;1258;139849;-71
2024/04/05 09:59:20;;;;;;;4.10;2.40;;;;;;;18.04;64.82;99812.70;219196;1259;139934;-71
2024/04/05 10:04:23;;;;;;;4.90;2.00;;;;;;;18.03;64.78;99800.42;218140;1260;139462;-70
2024/04/05 10:09:34;;;;;;;8.00;2.10;;;;;;;18.13;64.58;99806.48;217634;1260;140900;-70
2024/04/05 10:14:37;;;;;;;3.20;1.60;;;;;;;18.21;64.04;99805.98;217619;1260;140010;-71
2024/04/05 10:19:41;;;;;;;3.30;1.80;;;;;;;18.21;63.48;99809.77;217585;1260;139099;-71
2024/04/05 10:24:44;;;;;;;2.70;1.40;;;;;;;18.27;63.68;99797.80;217589;1259;140009;-71
2024/04/05 10:30:00;;;;;;;3.50;1.70;;;;;;;18.17;62.86;99806.45;217672;1262;140295;-71
2024/04/05 10:35:07;;;;;;;2.00;1.60;;;;;;;18.02;62.22;99804.20;217642;1261;139343;-70
2024/04/05 10:40:15;;;;;;;3.40;1.70;;;;;;;17.85;62.46;99800.88;217604;1258;139531;-70
2024/04/05 10:45:20;;;;;;;4.10;1.90;;;;;;;17.63;62.24;99804.57;217724;1260;140031;-70
2024/04/05 10:50:22;;;;;;;2.00;1.80;;;;;;;17.38;62.12;99806.75;217315;1260;139112;-70
2024/04/05 10:55:28;;;;;;;5.50;2.10;;;;;;;17.22;61.70;99806.28;217563;1260;141308;-70
2024/04/05 11:00:33;;;;;;;3.90;1.20;;;;;;;17.79;62.74;99797.39;217408;1260;141265;-71
2024/04/05 11:05:36;;;;;;;1.70;1.50;;;;;;;18.63;62.53;99798.15;217634;1258;140710;-71
2024/04/05 11:10:40;;;;;;;1.60;1.30;;;;;;;18.75;61.03;99800.57;217384;1260;139290;-70
2024/04/05 11:15:46;;;;;;;3.80;1.70;;;;;;;18.50;60.34;99814.19;218027;1262;139928;-71
2024/04/05 11:20:50;;;;;;;4.30;2.00;;;;;;;18.12;59.89;99823.33;217967;1261;140917;-71
2024/04/05 11:25:55;;;;;;;3.50;2.20;;;;;;;17.64;59.74;99816.31;217490;1259;140062;-71
2024/04/05 11:30:57;;;;;;;2.70;1.40;;;;;;;17.22;60.03;99822.19;218574;1261;140300;-71
2024/04/05 11:36:00;;;;;;;1.40;1.30;;;;;;;16.99;60.26;99825.24;217334;1260;140069;-71
2024/04/05 11:41:05;;;;;;;3.50;1.70;;;;;;;16.90;60.63;99825.80;217644;1260;139683;-71
2024/04/05 11:46:08;;;;;;;6.20;1.70;;;;;;;16.84;60.85;99829.85;217439;1262;141218;-71
2024/04/05 11:51:11;;;;;;;5.50;2.00;;;;;;;16.87;61.03;99833.29;218716;1258;139511;-72
2024/04/05 11:56:13;;;;;;;4.70;2.10;;;;;;;16.79;61.04;99839.73;218272;1258;140404;-71
2024/04/05 12:01:16;;;;;;;2.70;1.70;;;;;;;16.64;61.15;99842.43;217941;1262;139440;-72
2024/04/05 12:06:19;;;;;;;3.50;1.50;;;;;;;16.55;61.10;99838.17;217470;1262;140294;-71
2024/04/05 12:11:22;;;;;;;3.40;1.60;;;;;;;16.57;61.45;99838.23;217685;1260;140033;-72
2024/04/05 12:16:24;;;;;;;4.10;1.80;;;;;;;16.73;61.67;99836.73;217446;1261;139446;-71
2024/04/05 12:21:28;;;;;;;2.80;1.10;;;;;;;17.03;62.36;99832.43;217278;1262;140667;-72
2024/04/05 12:26:30;;;;;;;1.70;1.40;;;;;;;17.31;61.93;99834.16;218310;1262;140045;-71
2024/04/05 12:31:40;;;;;;;2.60;2.10;;;;;;;17.35;60.65;99826.77;217642;1262;140132;-71
2024/04/05 12:36:43;;;;;;;3.70;1.80;;;;;;;17.38;60.40;99821.80;217430;1260;140079;-71
2024/04/05 12:41:45;;;;;;;3.50;1.40;;;;;;;17.51;60.20;99813.79;217513;1260;139905;-70
2024/04/05 12:46:51;;;;;;;2.60;1.50;;;;;;;17.59;60.40;99805.18;217481;1259;140665;-73
2024/04/05 12:51:54;;;;;;;4.90;1.90;;;;;;;17.65;60.24;99803.33;218032;1257;139639;-72
2024/04/05 12:57:00;;;;;;;6.80;1.40;;;;;;;17.80;60.65;99786.69;217663;1259;139698;-71
2024/04/05 13:02:03;;;;;;;2.70;1.80;;;;;;;18.04;60.25;99790.43;217433;1262;139496;-71
2024/04/05 13:07:06;;;;;;;3.20;1.80;;;;;;;18.13;60.16;99789.97;217290;1260;139966;-72
2024/04/05 13:12:09;;;;;;;2.10;1.70;;;;;;;18.18;59.85;99795.54;217439;1258;139876;-70
2024/04/05 13:17:13;;;;;;;5.10;2.10;;;;;;;18.29;60.08;99789.95;219236;1262;139749;-72
2024/04/05 13:22:18;;;;;;;2.20;1.40;;;;;;;18.30;59.53;99800.95;217754;1262;140257;-71
2024/04/05 13:27:20;;;;;;;2.00;1.80;;;;;;;18.28;59.66;99797.46;218725;1260;140063;-71
2024/04/05 13:32:23;;;;;;;2.20;1.30;;;;;;;18.62;60.01;99787.20;219972;1259;139865;-71
2024/04/05 13:37:28;;;;;;;3.30;1.60;;;;;;;18.77;59.19;99781.80;219776;1258;139104;-71
2024/04/05 13:42:30;;;;;;;4.50;1.80;;;;;;;18.86;58.82;99779.89;217394;1260;139429;-71
2024/04/05 13:47:33;;;;;;;4.00;1.80;;;;;;;18.84;58.69;99776.02;217778;1262;139204;-71
2024/04/05 13:52:35;;;;;;;2.90;1.70;;;;;;;18.69;58.20;99772.88;217673;1262;139490;-72
2024/04/05 13:57:37;;;;;;;5.90;1.90;;;;;;;18.54;58.12;99758.77;218188;1259;139544;-71
2024/04/05 14:02:39;;;;;;;5.10;2.80;;;;;;;18.37;58.34;99760.66;218887;1260;140382;-72
2024/04/05 14:07:41;;;;;;;3.60;1.50;;;;;;;18.36;57.81;99753.55;217795;1262;139080;-72
2024/04/05 14:12:44;;;;;;;4.40;1.50;;;;;;;18.33;57.62;99751.59;217182;1263;140765;-72
2024/04/05 14:17:46;;;;;;;7.50;2.20;;;;;;;18.32;57.61;99748.80;217842;1262;140287;-72
2024/04/05 14:22:49;;;;;;;2.50;1.60;;;;;;;18.30;57.66;99742.45;217427;1263;139031;-72
2024/04/05 14:27:51;;;;;;;5.60;1.60;;;;;;;18.29;57.51;99731.13;217603;1257;140166;-71
2024/04/05 14:32:54;;;;;;;2.30;1.60;;;;;;;18.01;57.27;99736.13;217325;1262;139212;-70
2024/04/05 14:37:57;;;;;;;2.30;1.40;;;;;;;17.79;57.22;99736.38;217430;1260;139382;-70
2024/04/05 14:43:02;;;;;;;8.50;2.20;;;;;;;17.70;57.37;99737.14;217256;1262;139574;-71
2024/04/05 14:48:04;;;;;;;3.80;1.90;;;;;;;17.62;57.54;99730.50;217150;1261;139797;-70
2024/04/05 14:53:06;;;;;;;7.40;1.90;;;;;;;17.58;57.77;99719.68;217222;1262;142691;-70
2024/04/05 14:58:10;;;;;;;5.60;2.20;;;;;;;17.62;58.10;99706.45;217134;1261;139092;-70
2024/04/05 15:03:12;;;;;;;3.30;1.70;;;;;;;17.62;58.00;99698.85;217455;1261;140470;-72
2024/04/05 15:08:15;;;;;;;1.90;1.40;;;;;;;17.59;57.86;99698.81;218893;1261;140022;-70
2024/04/05 15:13:17;;;;;;;2.50;2.00;;;;;;;17.55;57.71;99695.45;217719;1262;139486;-70
2024/04/05 15:18:20;;;;;;;3.80;1.80;;;;;;;17.68;57.94;99694.95;219090;1258;139552;-70
2024/04/05 15:23:23;;;;;;;5.30;2.30;;;;;;;17.79;57.83;99686.27;218813;1260;140250;-70
2024/04/05 15:28:32;;;;;;;2.80;1.50;;;;;;;17.87;57.45;99684.86;220001;1260;139717;-71
2024/04/05 15:33:41;;;;;;;7.60;1.70;;;;;;;17.68;56.55;99683.40;219488;1262;140119;-71
2024/04/05 15:38:46;;;;;;;2.90;1.40;;;;;;;17.56;56.73;99682.94;217542;1260;140621;-70
2024/04/05 15:43:49;;;;;;;6.30;2.20;;;;;;;17.54;56.80;99677.98;217811;1262;140624;-70
2024/04/05 15:48:52;;;;;;;4.70;1.60;;;;;;;17.54;56.91;99684.19;217239;1261;139781;-69
2024/04/05 15:54:06;;;;;;;4.40;1.80;;;;;;;17.45;56.84;99689.80;217538;1259;140294;-68
2024/04/05 15:59:09;;;;;;;4.70;1.90;;;;;;;17.31;56.71;99689.91;217516;1263;140031;-69
2024/04/05 16:04:11;;;;;;;5.50;1.60;;;;;;;17.19;57.00;99689.13;217161;1263;140138;-72
2024/04/05 16:09:14;;;;;;;2.20;1.60;;;;;;;17.04;56.94;99680.11;217052;1262;140216;-71
2024/04/05 16:14:17;;;;;;;10.50;2.20;;;;;;;16.81;57.15;99672.80;217139;1260;140176;-71
2024/04/05 16:19:20;;;;;;;8.20;1.60;;;;;;;16.60;57.35;99686.61;216919;1263;140362;-70
2024/04/05 16:24:23;;;;;;;3.40;1.80;;;;;;;16.36;57.26;99686.42;217143;1264;139372;-70
2024/04/05 16:29:27;;;;;;;6.10;1.80;;;;;;;16.15;57.48;99681.26;217178;1263;140079;-70
2024/04/05 16:34:30;;;;;;;5.20;1.90;;;;;;;16.01;57.82;99679.98;217141;1261;140272;-71
2024/04/05 16:39:36;;;;;;;4.40;2.10;;;;;;;15.89;58.07;99670.98;217181;1260;140147;-70
2024/04/05 16:44:39;;;;;;;5.50;2.20;;;;;;;15.78;58.34;99659.55;218193;1260;140943;-70
2024/04/05 16:49:44;;;;;;;6.30;1.40;;;;;;;15.68;58.54;99654.87;217100;1263;139590;-70
2024/04/05 16:54:47;;;;;;;3.10;1.70;;;;;;;15.58;58.74;99652.71;217117;1262;139984;-70
2024/04/05 16:59:52;;;;;;;3.20;2.40;;;;;;;15.47;58.83;99643.94;216929;1260;280136;-70
2024/04/05 17:04:55;;;;;;;6.40;3.10;;;;;;;15.35;59.05;99649.04;217447;1262;234946;-69
2024/04/05 17:09:59;;;;;;;4.90;2.50;;;;;;;15.26;59.19;99646.67;217476;1262;140230;-70
2024/04/05 17:15:02;;;;;;;5.60;2.50;;;;;;;15.17;59.37;99647.96;217930;1260;140705;-70
2024/04/05 17:20:05;;;;;;;6.60;2.00;;;;;;;15.08;59.68;99643.27;217986;1260;139146;-70
2024/04/05 17:25:09;;;;;;;5.70;2.40;;;;;;;15.01;59.82;99633.32;218151;1261;140508;-69
2024/04/05 17:30:13;;;;;;;4.90;2.50;;;;;;;14.93;59.98;99636.05;217347;1258;139842;-73
2024/04/05 17:35:15;;;;;;;4.60;2.60;;;;;;;14.86;60.32;99636.30;216961;1261;140993;-72
2024/04/05 17:40:20;;;;;;;4.10;2.30;;;;;;;14.72;60.32;99635.02;217565;1257;140132;-70
2024/04/05 17:45:23;;;;;;;6.40;2.30;;;;;;;14.65;60.58;99626.59;217702;1262;139333;-70
2024/04/05 17:50:25;;;;;;;4.70;2.60;;;;;;;14.54;60.78;99620.27;217428;1260;139275;-68
2024/04/05 17:55:28;;;;;;;8.30;3.80;;;;;;;14.41;61.10;99613.30;217540;1261;139687;-69
2024/04/05 18:00:30;;;;;;;7.30;2.90;;;;;;;14.34;61.36;99621.20;217686;1259;139127;-70
2024/04/05 18:05:32;;;;;;;9.80;4.20;;;;;;;14.27;61.74;99621.33;217969;1257;140195;-71
2024/04/05 18:10:35;;;;;;;9.70;3.90;;;;;;;14.20;62.01;99641.88;217340;1262;140123;-70
2024/04/05 18:15:37;;;;;;;6.80;3.40;;;;;;;14.13;62.18;99656.95;217193;1264;139457;-68
2024/04/05 18:20:40;;;;;;;7.60;3.30;;;;;;;14.03;62.34;99650.42;217288;1262;139065;-72
2024/04/05 18:25:45;;;;;;;10.00;3.80;;;;;;;13.96;62.63;99646.15;217340;1259;140041;-70
2024/04/05 18:30:47;;;;;;;9.00;3.60;;;;;;;13.89;62.85;99643.20;217302;1258;139698;-69
2024/04/05 18:35:49;;;;;;;8.00;4.50;;;;;;;13.80;63.02;99640.98;217144;1263;139811;-70
2024/04/05 18:40:53;;;;;;;4.60;2.50;;;;;;;13.68;63.37;99640.45;217246;1263;139731;-69
2024/04/05 18:45:55;;;;;;;6.40;4.30;;;;;;;13.58;63.48;99632.23;217157;1262;140085;-69
2024/04/05 18:50:57;;;;;;;13.20;5.60;;;;;;;13.47;63.59;99624.27;217462;1259;139978;-67
2024/04/05 18:56:00;;;;;;;8.30;5.20;;;;;;;13.43;64.03;99619.27;216992;1261;140498;-71
2024/04/05 19:01:03;;;;;;;8.80;4.80;;;;;;;13.38;64.21;99619.43;217006;1261;139728;-69
2024/04/05 19:06:14;;;;;;;7.00;5.00;;;;;;;13.34;64.61;99617.85;217595;1262;140260;-68
2024/04/05 19:11:17;;;;;;;8.90;5.20;;;;;;;13.30;64.73;99620.06;217494;1258;139987;-72
2024/04/05 19:16:21;;;;;;;8.60;5.20;;;;;;;13.28;65.04;99621.22;217431;1259;141207;-72
2024/04/05 19:21:29;;;;;;;8.30;4.70;;;;;;;13.24;65.07;99611.48;217512;1257;141969;-72
2024/04/05 19:26:32;;;;;;;9.50;5.20;;;;;;;13.17;65.23;99596.27;217613;1257;140097;-72
2024/04/05 19:31:35;;;;;;;7.20;4.80;;;;;;;13.07;65.34;99592.06;217197;1259;222910;-73
2024/04/05 19:36:37;;;;;;;10.70;5.30;;;;;;;13.00;65.38;99590.60;217849;1261;139940;-71
2024/04/05 19:41:41;;;;;;;9.10;5.50;;;;;;;12.95;65.75;99583.32;217405;1261;140328;-70
2024/04/05 19:46:43;;;;;;;13.40;6.20;;;;;;;12.90;65.90;99583.54;217611;1257;140128;-70
2024/04/05 19:51:47;;;;;;;8.90;4.60;;;;;;;12.86;65.99;99578.27;217148;1259;141505;-70
2024/04/05 19:56:50;;;;;;;17.60;6.30;;;;;;;12.83;66.45;99568.02;217203;1260;140758;-70
2024/04/05 20:01:53;;;;;;;10.90;6.10;;;;;;;12.83;66.54;99556.58;217391;1261;141355;-69
2024/04/05 20:06:56;;;;;;;12.60;5.20;;;;;;;12.83;66.69;99542.77;217333;1261;141223;-70
2024/04/05 20:12:00;;;;;;;16.70;7.00;;;;;;;12.84;66.58;99521.95;217418;1258;140815;-70
2024/04/05 20:17:03;;;;;;;9.60;4.20;;;;;;;12.87;66.89;99522.78;217450;1258;140593;-70
2024/04/05 20:22:06;;;;;;;10.30;5.70;;;;;;;12.90;66.84;99510.82;217182;1257;139491;-70
2024/04/05 20:27:09;;;;;;;7.30;4.60;;;;;;;12.95;66.85;99501.23;217997;1262;141147;-69
2024/04/05 20:32:31;;;;;;;8.50;4.50;;;;;;;12.98;67.21;99488.31;217317;1258;140802;-71
2024/04/05 20:37:34;;;;;;;4.10;3.20;;;;;;;13.00;67.16;99493.46;217291;1260;140600;-69
2024/04/05 20:42:37;;;;;;;8.10;4.40;;;;;;;13.01;66.98;99506.69;217156;1262;140014;-72
2024/04/05 20:47:40;;;;;;;9.30;4.30;;;;;;;13.02;67.16;99535.45;217967;1258;140282;-70
2024/04/05 20:52:44;;;;;;;6.90;3.10;;;;;;;13.06;67.30;99541.10;217671;1259;141076;-69
2024/04/05 20:57:47;;;;;;;8.30;5.10;;;;;;;13.08;67.52;99528.33;218622;1260;142205;-68
2024/04/05 21:02:49;;;;;;;11.20;3.60;;;;;;;13.13;67.67;99516.43;218174;1261;140200;-67
2024/04/05 21:07:53;;;;;;;6.30;2.90;;;;;;;13.17;67.72;99491.84;216957;1257;141558;-68
2024/04/05 21:12:55;;;;;;;8.10;4.00;;;;;;;13.24;67.79;99468.83;217336;1262;140320;-68
2024/04/05 21:17:58;;;;;;;10.50;5.80;;;;;;;13.30;67.94;99450.17;217352;1262;141308;-70
2024/04/05 21:23:01;;;;;;;9.60;3.70;;;;;;;13.35;68.14;99442.66;218228;1259;141479;-70
2024/04/05 21:28:04;;;;;;;17.80;3.80;;;;;;;13.39;68.26;99437.87;218770;1262;140931;-70
2024/04/05 21:33:07;;;;;;;6.90;3.10;;;;;;;13.43;68.31;99436.07;217700;1260;140001;-71
2024/04/05 21:38:09;;;;;;;4.90;3.60;;;;;;;13.46;68.56;99429.42;218189;1258;140487;-69
2024/04/05 21:43:13;;;;;;;5.00;3.40;;;;;;;13.49;68.48;99423.02;217513;1259;139167;-70
2024/04/05 21:48:16;;;;;;;8.40;3.40;;;;;;;13.51;68.46;99424.47;217299;1259;139916;-70
2024/04/05 21:53:19;;;;;;;9.50;3.40;;;;;;;13.53;68.60;99431.16;217652;1259;140290;-70
2024/04/05 21:58:25;;;;;;;10.60;4.30;;;;;;;13.56;68.75;99425.19;217558;1260;140808;-70
2024/04/05 22:03:44;;;;;;;9.30;2.80;;;;;;;13.60;68.99;99415.41;217987;1257;140546;-69
2024/04/05 22:08:47;;;;;;;6.30;3.00;;;;;;;13.64;69.14;99412.37;217419;1260;140811;-70
2024/04/05 22:13:50;;;;;;;6.20;3.10;;;;;;;13.68;69.18;99404.83;217201;1262;139615;-70
2024/04/05 22:18:53;;;;;;;7.90;3.00;;;;;;;13.72;69.32;99400.35;217438;1258;139975;-70
2024/04/05 22:23:58;;;;;;;8.60;3.50;;;;;;;13.77;69.43;99392.70;217448;1259;140126;-70
2024/04/05 22:29:00;;;;;;;5.20;3.00;;;;;;;13.81;69.68;99385.73;217611;1262;140363;-70
2024/04/05 22:34:03;;;;;;;5.50;2.70;;;;;;;13.83;69.73;99379.69;218127;1259;140581;-69
2024/04/05 22:39:07;;;;;;;20.70;3.80;;;;;;;13.86;69.69;99376.27;219900;1259;140991;-68
2024/04/05 22:44:13;;;;;;;8.50;2.40;;;;;;;13.91;69.71;99378.48;217568;1258;139894;-69
2024/04/05 22:49:16;;;;;;;6.60;3.10;;;;;;;13.94;69.90;99382.19;218364;1258;140685;-70
2024/04/05 22:54:20;;;;;;;5.20;3.40;;;;;;;13.99;69.96;99392.11;217331;1259;139811;-69
2024/04/05 22:59:23;;;;;;;4.20;2.40;;;;;;;14.02;70.18;99393.20;217107;1262;139854;-69
2024/04/05 23:04:26;;;;;;;2.60;2.40;;;;;;;14.00;70.69;99379.36;218932;1259;141071;-70
2024/04/05 23:09:35;;;;;;;6.10;2.60;;;;;;;13.95;71.23;99391.35;218236;1259;140264;-70
2024/04/05 23:14:38;;;;;;;4.10;2.40;;;;;;;13.91;71.42;99403.88;217147;1259;141230;-69